createdAt,value
2022-12-25T00:07:13.268Z,10.20
2022-12-25T00:17:13.055Z,8.80
2022-12-25T00:27:12.525Z,8.80
2022-12-25T00:37:12.135Z,7.90
2022-12-25T00:47:11.837Z,10.00
2022-12-25T00:57:11.408Z,9.20
2022-12-25T01:07:11.175Z,8.50
2022-12-25T01:17:10.952Z,9.10
2022-12-25T01:27:10.271Z,8.80
2022-12-25T01:37:10.053Z,7.70
2022-12-25T01:47:09.507Z,6.80
2022-12-25T01:57:09.285Z,6.40
2022-12-25T02:07:08.761Z,6.70
2022-12-25T02:17:08.762Z,8.90
2022-12-25T02:27:08.022Z,7.10
2022-12-25T02:37:07.796Z,6.00
2022-12-25T02:47:07.431Z,7.50
2022-12-25T02:57:07.059Z,7.50
2022-12-25T03:07:06.710Z,6.70
2022-12-25T03:17:06.184Z,9.20
2022-12-25T03:27:05.757Z,8.50
2022-12-25T03:37:05.410Z,8.10
2022-12-25T03:47:05.031Z,8.60
2022-12-25T03:57:04.669Z,9.60
2022-12-25T04:07:04.509Z,8.10
2022-12-25T04:17:04.061Z,7.10
2022-12-25T04:27:03.701Z,7.10
2022-12-25T04:37:03.156Z,7.60
2022-12-25T04:47:05.930Z,9.10
2022-12-25T04:57:02.701Z,8.30
2022-12-25T05:07:02.035Z,8.10
2022-12-25T05:16:56.618Z,7.60
2022-12-25T05:26:56.277Z,8.40
2022-12-25T05:36:55.886Z,8.60
2022-12-25T05:46:55.696Z,6.10
2022-12-25T05:56:55.287Z,7.20
2022-12-25T06:06:54.922Z,8.10
2022-12-25T06:16:54.586Z,6.30
2022-12-25T06:26:54.018Z,6.40
2022-12-25T06:36:53.812Z,7.10
2022-12-25T06:46:53.258Z,8.40
2022-12-25T06:56:53.052Z,6.60
2022-12-25T07:06:52.507Z,7.50
2022-12-25T07:16:52.430Z,8.00
2022-12-25T07:26:51.744Z,6.90
2022-12-25T07:36:51.511Z,9.10
2022-12-25T07:46:51.003Z,9.50
2022-12-25T07:56:50.847Z,7.20
2022-12-25T08:06:50.232Z,9.40
2022-12-25T08:16:50.182Z,9.00
2022-12-25T08:26:49.486Z,10.00
2022-12-25T08:36:49.276Z,7.80
2022-12-25T08:46:48.752Z,8.70
2022-12-25T08:56:48.400Z,7.10
2022-12-25T09:06:48.172Z,7.00
2022-12-25T09:16:47.804Z,5.60
2022-12-25T09:26:47.488Z,7.00
2022-12-25T09:36:47.217Z,6.30
2022-12-25T09:46:46.629Z,5.80
2022-12-25T09:56:46.517Z,5.80
2022-12-25T10:06:45.802Z,7.30
2022-12-25T10:16:45.582Z,6.30
2022-12-25T10:26:45.070Z,6.40
2022-12-25T10:36:44.693Z,4.90
2022-12-25T10:46:44.486Z,5.20
2022-12-25T10:56:44.084Z,6.30
2022-12-25T11:06:43.711Z,3.70
2022-12-25T11:16:43.408Z,4.80
2022-12-25T11:26:42.813Z,3.70
2022-12-25T11:36:43.014Z,4.30
2022-12-25T11:46:42.060Z,3.90
2022-12-25T11:56:41.700Z,5.60
2022-12-25T12:06:41.345Z,6.80
2022-12-25T12:16:41.597Z,6.40
2022-12-25T12:26:40.589Z,6.50
2022-12-25T12:36:40.355Z,7.10
2022-12-25T12:46:39.910Z,7.40
2022-12-25T12:56:39.785Z,7.50
2022-12-25T13:06:39.370Z,8.20
2022-12-25T13:16:39.022Z,8.40
2022-12-25T13:26:38.664Z,8.50
2022-12-25T13:36:38.248Z,7.10
2022-12-25T13:46:37.627Z,8.20
2022-12-25T13:56:37.402Z,6.90
2022-12-25T14:06:36.921Z,10.20
2022-12-25T14:16:36.718Z,7.80
2022-12-25T14:26:36.276Z,8.20
2022-12-25T14:36:35.911Z,8.10
2022-12-25T14:46:35.654Z,9.20
2022-12-25T14:56:35.028Z,9.20
2022-12-25T15:06:34.832Z,10.40
2022-12-25T15:16:34.536Z,9.70
2022-12-25T15:26:34.067Z,9.00
2022-12-25T15:36:33.711Z,7.60
2022-12-25T15:46:33.575Z,9.70
2022-12-25T15:56:33.127Z,8.40
2022-12-25T16:06:32.497Z,9.10
2022-12-25T16:16:32.261Z,9.20
2022-12-25T16:26:31.722Z,8.00
2022-12-25T16:36:31.484Z,9.40
2022-12-25T16:46:31.038Z,7.80
2022-12-25T16:56:30.754Z,8.40
2022-12-25T17:06:30.258Z,7.90
2022-12-25T17:16:29.926Z,8.00
2022-12-25T17:26:29.685Z,9.00
2022-12-25T17:36:29.162Z,9.70
2022-12-25T17:46:28.927Z,9.30
2022-12-25T17:56:28.592Z,7.80
2022-12-25T18:06:28.305Z,8.40
2022-12-25T18:16:27.765Z,13.20
2022-12-25T18:26:27.350Z,9.60
2022-12-25T18:36:27.170Z,9.00
2022-12-25T18:46:27.166Z,9.10
2022-12-25T18:56:26.513Z,9.50
2022-12-25T19:06:26.473Z,9.60
2022-12-25T19:16:26.414Z,9.70
2022-12-25T19:26:25.971Z,9.40
2022-12-25T19:36:25.899Z,8.40
2022-12-25T19:46:25.738Z,8.40
2022-12-25T19:56:25.590Z,7.20
2022-12-25T20:06:25.155Z,7.90
2022-12-25T20:16:25.002Z,7.70
2022-12-25T20:26:24.744Z,7.90
2022-12-25T20:36:24.479Z,8.20
2022-12-25T20:46:24.279Z,10.80
2022-12-25T20:56:24.034Z,7.90
2022-12-25T21:06:23.779Z,7.00
2022-12-25T21:16:23.616Z,7.10
2022-12-25T21:26:23.130Z,7.00
2022-12-25T21:36:23.007Z,7.00
2022-12-25T21:46:22.844Z,6.40
2022-12-25T21:56:22.362Z,6.50
2022-12-25T22:06:22.100Z,6.80
2022-12-25T22:16:22.085Z,5.50
2022-12-25T22:26:21.806Z,8.40
2022-12-25T22:36:21.540Z,6.20
2022-12-25T22:46:21.520Z,7.00
2022-12-25T22:56:20.932Z,6.50
2022-12-25T23:06:20.664Z,6.20
2022-12-25T23:16:20.515Z,7.90
2022-12-25T23:26:20.184Z,7.00
2022-12-25T23:36:20.079Z,7.90
2022-12-25T23:46:19.829Z,8.60
2022-12-25T23:56:19.708Z,8.80
